Northlander — ZGAE — position and weather

sailwx.info

Track history (hours):
 
Tides and Currents Weather Stations Pressure Air Temp Water Temp Dewpoint Dewpoint Depression Visibility Wind Speed Wind Dir Waves Ship Positions

Northlander

Last reported at 2016-Aug-26 04:33 UTC. Time now 2016-Aug-26 06:49 UTC.
Position N 39°13' E 002°09'.

Length 38 m; draft 2.5 m.

Type: Pleasure craft. MMSI: 319078000.

Date/timePositionNaut miles runAvg speedWind from/ knotsBaromVisibWave heightAir tempDewpointWater temp
2016-Aug-26 04:33N 39°13' E 002°09'1010.2
2016-Aug-26 03:33N 39°08' E 001°58'1010.3
2016-Aug-26 02:33N 39°02' E 001°47'1010.2
2016-Aug-26 01:33N 38°56' E 001°36'14 6.5
2016-Aug-25 23:26N 38°45' E 001°26'0 0.0
2016-Aug-25 12:21N 38°45' E 001°26'  
2016-Aug-20 23:29N 38°57' E 001°40'1010.6
2016-Aug-20 22:31N 39°05' E 001°48'1010.5
2016-Aug-20 21:33N 39°12' E 001°57'1110.5
2016-Aug-20 20:33N 39°20' E 002°06'1110.7
2016-Aug-20 19:33N 39°28' E 002°15'10 1.9
2016-Aug-20 14:15N 39°37' E 002°22'911.0
2016-Aug-20 13:27N 39°42' E 002°31'1011.2
2016-Aug-20 12:33N 39°49' E 002°41'4 0.9
2016-Aug-20 07:33N 39°51' E 002°46'  
Track history (hours):
 
Tides and Currents Weather Stations Pressure Air Temp Water Temp Dewpoint Dewpoint Depression Visibility Wind Speed Wind Dir Waves Ship Positions

Northlander

Last reported at 2016-Aug-26 04:33 UTC. Time now 2016-Aug-26 06:49 UTC.
Position N 39°13' E 002°09'.

Length 38 m; draft 2.5 m.

Type: Pleasure craft. MMSI: 319078000.

Date/timePositionNaut miles runAvg speedWind from/ knotsBaromVisibWave heightAir tempDewpointWater temp
2016-Aug-26 04:33N 39°13' E 002°09'1010.2
2016-Aug-26 03:33N 39°08' E 001°58'1010.3
2016-Aug-26 02:33N 39°02' E 001°47'1010.2
2016-Aug-26 01:33N 38°56' E 001°36'14 6.5
2016-Aug-25 23:26N 38°45' E 001°26'0 0.0
2016-Aug-25 12:21N 38°45' E 001°26'  
2016-Aug-20 23:29N 38°57' E 001°40'1010.6
2016-Aug-20 22:31N 39°05' E 001°48'1010.5
2016-Aug-20 21:33N 39°12' E 001°57'1110.5
2016-Aug-20 20:33N 39°20' E 002°06'1110.7
2016-Aug-20 19:33N 39°28' E 002°15'10 1.9
2016-Aug-20 14:15N 39°37' E 002°22'911.0
2016-Aug-20 13:27N 39°42' E 002°31'1011.2
2016-Aug-20 12:33N 39°49' E 002°41'4 0.9
2016-Aug-20 07:33N 39°51' E 002°46'  

Dump ship's entire track history